Time;durP1;ratioP1;P1;durP2;ratioP2;P2;SDS_P1;SDS_P2;PMS_P1;PMS_P2;Temp;Humidity;BMP_temperature;BMP_pressure;BME280_temperature;BME280_humidity;BME280_pressure;Samples;Min_cycle;Max_cycle;Signal;HPM_P1;HPM_P2
2024/01/04 00:00:23;;;;;;;2.20;2.00;;;;;;;-24.91;73.39;98645.94;5022889;28;20116;-83
2024/01/04 00:02:51;;;;;;;2.15;2.05;;;;;;;-24.96;73.42;98640.09;5014364;28;20058;-83
2024/01/04 00:05:18;;;;;;;2.17;2.03;;;;;;;-24.96;73.20;98646.06;4987421;28;20050;-84
2024/01/04 00:07:46;;;;;;;2.00;1.90;;;;;;;-24.92;73.13;98641.72;5000954;28;20073;-84
2024/01/04 00:10:15;;;;;;;2.00;1.90;;;;;;;-24.97;73.04;98639.28;5006674;28;20046;-83
2024/01/04 00:12:44;;;;;;;2.20;2.00;;;;;;;-24.96;73.24;98635.00;5011293;28;20092;-84
2024/01/04 00:15:12;;;;;;;2.00;1.90;;;;;;;-24.96;73.27;98627.38;5010837;28;20137;-84
2024/01/04 00:17:41;;;;;;;2.08;1.92;;;;;;;-24.87;73.21;98634.00;5010239;28;20042;-84
2024/01/04 00:20:09;;;;;;;2.28;2.10;;;;;;;-24.86;73.00;98639.03;5009523;28;20046;-84
2024/01/04 00:22:38;;;;;;;2.10;2.00;;;;;;;-24.84;73.07;98626.28;5011156;28;20049;-83
2024/01/04 00:25:05;;;;;;;2.00;1.90;;;;;;;-24.78;73.12;98634.63;4994405;28;20053;-85
2024/01/04 00:27:33;;;;;;;2.33;2.13;;;;;;;-24.77;73.04;98633.72;4976800;28;20141;-85
2024/01/04 00:30:00;;;;;;;2.13;2.03;;;;;;;-24.82;72.87;98647.47;5007756;28;20105;-84
2024/01/04 00:32:32;;;;;;;2.00;1.90;;;;;;;-24.86;73.01;98631.38;4992221;28;20056;-84
2024/01/04 00:35:01;;;;;;;2.00;1.90;;;;;;;-24.81;72.91;98636.38;4990114;28;20050;-85
2024/01/04 00:37:29;;;;;;;1.90;1.80;;;;;;;-24.82;72.79;98644.91;4974228;28;20099;-85
2024/01/04 00:39:56;;;;;;;2.33;2.13;;;;;;;-24.80;72.84;98645.72;4989715;28;20129;-85
2024/01/04 00:42:26;;;;;;;2.13;2.03;;;;;;;-24.92;72.49;98625.63;4998181;28;20112;-85
2024/01/04 00:44:53;;;;;;;2.00;1.90;;;;;;;-24.86;72.65;98630.56;4991972;28;20053;-85
2024/01/04 00:47:28;;;;;;;2.00;1.90;;;;;;;-24.87;72.80;98624.63;5007817;28;20042;-84
2024/01/04 00:49:55;;;;;;;2.00;1.90;;;;;;;-24.77;72.62;98625.25;5009886;28;20397;-84
2024/01/04 00:52:25;;;;;;;2.45;2.25;;;;;;;-24.77;72.50;98618.44;5011023;28;20060;-84
2024/01/04 00:54:52;;;;;;;2.35;2.15;;;;;;;-24.82;72.50;98625.34;5010586;28;20065;-85
2024/01/04 00:57:19;;;;;;;2.00;1.90;;;;;;;-24.84;72.51;98624.56;5004655;28;20394;-85
2024/01/04 00:59:47;;;;;;;2.17;2.00;;;;;;;-24.84;72.92;98619.47;5000706;28;20570;-84
2024/01/04 01:02:16;;;;;;;2.08;1.98;;;;;;;-24.77;72.88;98620.16;4957771;28;20058;-84
2024/01/04 01:04:43;;;;;;;2.03;1.92;;;;;;;-24.70;72.72;98615.78;4990062;28;20657;-85
2024/01/04 01:07:11;;;;;;;1.90;1.80;;;;;;;-24.66;72.56;98609.72;5006689;28;20058;-84
2024/01/04 01:09:42;;;;;;;2.00;1.90;;;;;;;-24.65;72.68;98599.50;4991800;28;20054;-85
2024/01/04 01:12:09;;;;;;;2.08;1.98;;;;;;;-24.60;72.72;98602.75;5004976;28;20054;-85
2024/01/04 01:14:37;;;;;;;1.90;1.80;;;;;;;-24.65;72.59;98596.09;4989202;28;20050;-86
2024/01/04 01:17:07;;;;;;;1.90;1.80;;;;;;;-24.66;72.46;98591.88;4989818;28;20574;-84
2024/01/04 01:19:37;;;;;;;2.00;1.90;;;;;;;-24.86;72.50;98575.31;5006345;28;20137;-85
2024/01/04 01:22:05;;;;;;;2.00;1.90;;;;;;;-24.69;72.50;98597.88;4990149;28;20526;-84
2024/01/04 01:24:32;;;;;;;2.15;2.00;;;;;;;-24.65;72.42;98602.03;4990642;28;20062;-85
2024/01/04 01:26:59;;;;;;;2.05;1.95;;;;;;;-24.60;72.55;98579.81;4996267;28;20057;-85
2024/01/04 01:29:29;;;;;;;2.10;2.00;;;;;;;-24.57;72.47;98582.28;4990138;28;20054;-85
2024/01/04 01:31:56;;;;;;;2.20;2.00;;;;;;;-24.59;72.40;98578.09;4991989;28;20572;-85
2024/01/04 01:34:26;;;;;;;2.00;1.90;;;;;;;-24.62;72.48;98589.22;4989167;28;20061;-85
2024/01/04 01:36:54;;;;;;;2.05;1.95;;;;;;;-24.61;72.49;98574.75;4991676;28;20038;-85
2024/01/04 01:39:21;;;;;;;2.28;2.08;;;;;;;-24.62;72.68;98588.38;4992310;28;20093;-84
2024/01/04 01:41:48;;;;;;;2.00;1.90;;;;;;;-24.56;72.74;98588.22;5000433;28;20049;-84
2024/01/04 01:44:15;;;;;;;2.13;1.92;;;;;;;-24.53;72.80;98594.09;5010098;28;20057;-84
2024/01/04 01:46:43;;;;;;;2.30;2.10;;;;;;;-24.45;72.94;98600.69;5025651;28;20716;-85
2024/01/04 01:49:10;;;;;;;2.20;2.00;;;;;;;-24.38;72.94;98594.53;5010456;28;20066;-85
2024/01/04 01:51:38;;;;;;;2.00;1.90;;;;;;;-24.35;72.90;98592.75;5009853;28;20128;-86
2024/01/04 01:54:05;;;;;;;2.10;2.00;;;;;;;-24.39;72.77;98587.78;5012500;28;20046;-85
2024/01/04 01:56:32;;;;;;;2.33;2.13;;;;;;;-24.38;72.85;98594.53;5012509;28;20045;-84
2024/01/04 01:59:01;;;;;;;2.00;1.90;;;;;;;-24.37;72.81;98581.75;5012351;28;20045;-86
2024/01/04 02:01:35;;;;;;;2.38;2.17;;;;;;;-24.33;72.79;98578.22;5012868;28;20145;-87
2024/01/04 02:04:02;;;;;;;2.05;1.95;;;;;;;-24.29;72.85;98582.41;5012941;28;20049;-85
2024/01/04 02:06:29;;;;;;;2.08;1.98;;;;;;;-24.30;72.77;98573.09;5012771;28;20139;-85
2024/01/04 02:08:56;;;;;;;1.90;1.80;;;;;;;-24.22;72.69;98574.59;5013015;28;20419;-83
2024/01/04 02:11:24;;;;;;;2.00;1.90;;;;;;;-24.21;72.61;98574.53;5014723;28;20165;-84
2024/01/04 02:13:53;;;;;;;2.08;1.98;;;;;;;-24.24;72.61;98569.53;5013972;28;20054;-84
2024/01/04 02:16:21;;;;;;;2.10;2.00;;;;;;;-24.26;72.94;98571.28;5014019;28;20416;-84
2024/01/04 02:18:49;;;;;;;2.10;2.00;;;;;;;-24.23;72.96;98571.19;5006289;28;20412;-85
2024/01/04 02:21:19;;;;;;;2.10;2.00;;;;;;;-24.32;72.92;98558.69;5005265;28;20042;-85
2024/01/04 02:23:53;;;;;;;2.00;1.90;;;;;;;-24.24;72.96;98566.16;5001999;28;20066;-85
2024/01/04 02:26:21;;;;;;;2.00;1.90;;;;;;;-24.30;72.83;98554.38;4999321;28;20050;-85
2024/01/04 02:28:49;;;;;;;2.25;2.10;;;;;;;-24.24;72.90;98564.44;4993321;28;20047;-85
2024/01/04 02:31:19;;;;;;;2.28;2.10;;;;;;;-24.25;72.94;98562.75;4993872;28;20056;-85
2024/01/04 02:33:46;;;;;;;2.00;1.90;;;;;;;-24.32;73.19;98561.25;4992910;28;20141;-85
2024/01/04 02:36:13;;;;;;;2.10;2.00;;;;;;;-24.30;73.01;98559.47;4993063;28;20054;-85
2024/01/04 02:38:40;;;;;;;2.13;2.03;;;;;;;-24.38;73.04;98556.28;4993188;28;20054;-85
2024/01/04 02:41:07;;;;;;;2.05;1.95;;;;;;;-24.52;73.09;98565.16;4993643;28;20042;-85
2024/01/04 02:43:34;;;;;;;2.00;1.90;;;;;;;-24.64;73.33;98570.56;5007728;28;20058;-85
2024/01/04 02:46:02;;;;;;;2.17;2.05;;;;;;;-24.82;73.02;98578.66;4993410;28;20460;-83
2024/01/04 02:48:30;;;;;;;2.30;2.10;;;;;;;-24.96;73.08;98574.72;4994318;28;20493;-85
2024/01/04 02:50:57;;;;;;;2.20;2.00;;;;;;;-25.00;73.36;98572.28;5012109;28;20136;-84
2024/01/04 02:53:24;;;;;;;1.95;1.85;;;;;;;-25.03;73.71;98555.38;5011206;28;20046;-84
2024/01/04 02:55:55;;;;;;;2.28;2.08;;;;;;;-25.12;73.75;98547.91;5010504;28;20072;-84
2024/01/04 02:58:26;;;;;;;2.00;1.90;;;;;;;-25.14;73.88;98553.94;5012704;28;20376;-83
2024/01/04 03:00:53;;;;;;;2.10;2.00;;;;;;;-25.25;74.09;98541.47;5011536;28;20077;-84
2024/01/04 03:03:20;;;;;;;2.00;1.90;;;;;;;-25.26;74.46;98537.22;5012141;28;20052;-85
2024/01/04 03:05:49;;;;;;;2.03;1.90;;;;;;;-25.29;74.46;98529.66;5011182;28;20050;-84
2024/01/04 03:08:16;;;;;;;2.00;1.90;;;;;;;-25.33;74.71;98531.47;5012293;28;20054;-84
2024/01/04 03:10:44;;;;;;;2.08;1.95;;;;;;;-25.34;74.82;98539.13;5011854;28;20565;-84
2024/01/04 03:13:11;;;;;;;2.42;2.22;;;;;;;-25.31;74.99;98536.50;5012138;28;20054;-84
2024/01/04 03:15:38;;;;;;;2.00;1.90;;;;;;;-25.35;74.90;98534.91;5012002;28;20060;-86
2024/01/04 03:18:05;;;;;;;2.15;2.03;;;;;;;-25.33;75.18;98543.38;5012367;28;20059;-85
2024/01/04 03:20:32;;;;;;;2.03;1.92;;;;;;;-25.38;75.24;98530.72;4995766;28;20065;-85
2024/01/04 03:22:59;;;;;;;2.25;2.05;;;;;;;-25.44;75.30;98530.84;4992154;28;20074;-85
2024/01/04 03:25:34;;;;;;;2.10;2.00;;;;;;;-25.46;75.42;98527.53;4993025;28;20109;-85
2024/01/04 03:28:02;;;;;;;2.13;2.00;;;;;;;-25.45;75.48;98519.00;4993411;28;20077;-85
2024/01/04 03:30:29;;;;;;;2.35;2.15;;;;;;;-25.50;75.52;98516.56;4991349;28;20056;-85
2024/01/04 03:33:03;;;;;;;2.20;2.00;;;;;;;-25.50;75.58;98516.56;4992195;28;20051;-84
2024/01/04 03:35:30;;;;;;;2.50;2.30;;;;;;;-25.52;75.43;98520.84;4974695;28;20131;-85
2024/01/04 03:37:57;;;;;;;2.00;1.90;;;;;;;-25.55;75.51;98518.38;4992436;28;20120;-84
2024/01/04 03:40:25;;;;;;;2.00;1.90;;;;;;;-25.59;75.65;98521.88;4991839;28;20104;-85
2024/01/04 03:42:53;;;;;;;2.25;2.05;;;;;;;-25.53;75.77;98520.88;4991123;28;20058;-84
2024/01/04 03:45:21;;;;;;;2.20;2.00;;;;;;;-25.57;75.65;98514.19;4992620;28;20137;-84
2024/01/04 03:47:48;;;;;;;2.40;2.20;;;;;;;-25.52;75.79;98523.38;4990731;28;20042;-85
2024/01/04 03:50:17;;;;;;;2.38;2.17;;;;;;;-25.48;75.85;98530.09;4992103;28;20061;-83
2024/01/04 03:52:44;;;;;;;2.05;1.95;;;;;;;-25.48;75.83;98540.28;5000316;28;20084;-85
2024/01/04 03:55:15;;;;;;;2.20;2.00;;;;;;;-25.52;75.88;98538.66;4992826;28;20057;-84
2024/01/04 03:57:44;;;;;;;2.20;2.00;;;;;;;-25.50;75.83;98538.63;4990791;28;20381;-83
2024/01/04 04:00:12;;;;;;;2.20;2.00;;;;;;;-25.48;75.99;98525.00;5007609;28;20050;-85
2024/01/04 04:02:39;;;;;;;2.40;2.20;;;;;;;-25.40;76.13;98532.47;5007196;28;20042;-86
2024/01/04 04:05:07;;;;;;;2.03;1.92;;;;;;;-25.36;76.03;98523.03;4992160;28;20424;-82
2024/01/04 04:07:34;;;;;;;2.38;2.17;;;;;;;-25.31;76.26;98511.03;4991503;28;20062;-83
2024/01/04 04:10:02;;;;;;;2.00;1.90;;;;;;;-25.31;76.18;98500.84;4991918;28;20061;-83
2024/01/04 04:12:31;;;;;;;2.33;2.13;;;;;;;-25.29;76.22;98509.31;4991961;28;20501;-82
2024/01/04 04:14:58;;;;;;;2.00;1.90;;;;;;;-25.28;76.24;98500.81;4990790;28;20129;-84
2024/01/04 04:17:28;;;;;;;2.33;2.13;;;;;;;-25.32;76.05;98501.75;4989856;28;20078;-83
2024/01/04 04:19:58;;;;;;;2.30;2.10;;;;;;;-25.36;76.27;98506.09;4974049;28;20050;-83
2024/01/04 04:22:25;;;;;;;2.20;2.00;;;;;;;-25.39;76.26;98511.22;4991218;28;20133;-83
2024/01/04 04:24:52;;;;;;;2.20;2.00;;;;;;;-25.40;76.49;98502.75;4992228;28;20080;-85
2024/01/04 04:27:19;;;;;;;2.20;2.05;;;;;;;-25.42;76.43;98501.94;4990951;28;20050;-83
2024/01/04 04:29:46;;;;;;;2.25;2.08;;;;;;;-25.46;76.54;98510.53;4989194;28;20122;-84
2024/01/04 04:32:17;;;;;;;2.00;1.90;;;;;;;-25.46;76.83;98507.16;4991210;28;20507;-84
2024/01/04 04:34:45;;;;;;;2.00;1.90;;;;;;;-25.43;76.90;98502.81;4990715;28;20050;-84
2024/01/04 04:37:14;;;;;;;2.35;2.15;;;;;;;-25.44;76.93;98496.06;4991483;28;20052;-85
2024/01/04 04:39:44;;;;;;;2.30;2.10;;;;;;;-25.45;76.78;98503.72;4993113;28;20105;-83
2024/01/04 04:42:11;;;;;;;2.10;2.00;;;;;;;-25.48;76.98;98507.19;4993226;28;20137;-85
2024/01/04 04:44:38;;;;;;;2.05;1.95;;;;;;;-25.44;77.00;98511.34;4990774;28;20093;-85
2024/01/04 04:47:05;;;;;;;2.00;1.90;;;;;;;-25.48;77.02;98504.63;4989758;28;20050;-85
2024/01/04 04:49:32;;;;;;;2.00;1.90;;;;;;;-25.39;77.10;98508.66;4990806;28;20057;-85
2024/01/04 04:52:04;;;;;;;2.28;2.08;;;;;;;-25.37;77.08;98508.66;4990251;28;20137;-85
2024/01/04 04:54:31;;;;;;;2.22;2.08;;;;;;;-25.36;77.07;98508.63;4990093;28;20153;-84
2024/01/04 04:57:00;;;;;;;2.00;1.90;;;;;;;-25.38;76.81;98510.38;4991310;28;20046;-85
2024/01/04 04:59:28;;;;;;;2.00;1.90;;;;;;;-25.45;76.92;98512.19;4990589;28;20050;-84
2024/01/04 05:01:55;;;;;;;2.20;2.00;;;;;;;-25.51;76.82;98499.63;4989178;28;20056;-84
2024/01/04 05:04:22;;;;;;;2.47;2.28;;;;;;;-25.46;77.02;98502.06;4988878;28;20420;-81
2024/01/04 05:06:50;;;;;;;2.30;2.10;;;;;;;-25.47;77.02;98503.75;4989910;28;20428;-84
2024/01/04 05:09:17;;;;;;;2.10;2.00;;;;;;;-25.47;77.30;98502.91;4990026;28;20082;-82
2024/01/04 05:11:45;;;;;;;2.53;2.33;;;;;;;-25.46;77.30;98502.91;4972494;28;20078;-82
2024/01/04 05:14:18;;;;;;;2.08;1.98;;;;;;;-25.46;77.39;98502.06;4990124;28;20516;-83
2024/01/04 05:16:46;;;;;;;2.20;2.00;;;;;;;-25.44;77.13;98506.25;4989959;28;20133;-83
2024/01/04 05:19:13;;;;;;;2.10;2.00;;;;;;;-25.42;77.25;98501.94;4988625;28;20296;-83
2024/01/04 05:21:40;;;;;;;2.10;2.00;;;;;;;-25.40;77.28;98512.09;4972276;28;20077;-84
2024/01/04 05:24:07;;;;;;;2.20;2.00;;;;;;;-25.35;77.25;98512.00;4988177;28;20642;-83
2024/01/04 05:26:43;;;;;;;2.10;2.00;;;;;;;-25.39;77.30;98511.22;4990430;28;20061;-83
2024/01/04 05:29:11;;;;;;;2.40;2.20;;;;;;;-25.36;77.64;98525.59;4989695;28;20057;-83
2024/01/04 05:31:44;;;;;;;2.40;2.20;;;;;;;-25.29;77.53;98543.22;4990092;28;20639;-84
2024/01/04 05:34:12;;;;;;;2.33;2.13;;;;;;;-25.30;77.48;98541.56;5006660;28;20050;-84
2024/01/04 05:36:41;;;;;;;2.30;2.13;;;;;;;-25.28;77.58;98521.19;5007031;28;20050;-84
2024/01/04 05:39:10;;;;;;;2.00;1.90;;;;;;;-25.29;77.79;98491.47;5006965;28;20053;-84
2024/01/04 05:41:38;;;;;;;2.05;1.95;;;;;;;-25.21;77.55;98499.81;4990913;28;20049;-84
2024/01/04 05:44:06;;;;;;;2.00;1.90;;;;;;;-25.20;77.39;98498.91;5007253;28;20046;-84
2024/01/04 05:46:39;;;;;;;2.03;1.90;;;;;;;-25.27;77.31;98495.66;5007440;28;20049;-83
2024/01/04 05:49:10;;;;;;;2.00;1.90;;;;;;;-25.30;77.37;98493.19;5007362;28;20057;-84
2024/01/04 05:51:38;;;;;;;2.28;2.08;;;;;;;-25.27;77.36;98482.09;5006601;28;20499;-83
2024/01/04 05:54:09;;;;;;;2.00;1.90;;;;;;;-25.32;77.37;98479.66;5006831;28;20046;-84
2024/01/04 05:56:39;;;;;;;2.15;2.03;;;;;;;-25.40;77.21;98486.66;5006554;28;20053;-84
2024/01/04 05:59:06;;;;;;;2.22;2.05;;;;;;;-25.47;77.07;98477.47;5006715;28;20068;-83
2024/01/04 06:01:36;;;;;;;2.10;2.00;;;;;;;-25.55;77.09;98475.09;5006475;28;20046;-84
2024/01/04 06:04:13;;;;;;;2.45;2.25;;;;;;;-25.54;77.10;98475.94;4988316;28;20049;-83
2024/01/04 06:06:48;;;;;;;2.15;2.00;;;;;;;-25.55;76.89;98474.28;4989887;28;20050;-84
2024/01/04 06:09:20;;;;;;;2.20;2.00;;;;;;;-25.58;77.03;98475.19;4989759;28;20058;-83
2024/01/04 06:11:50;;;;;;;2.20;2.00;;;;;;;-25.61;76.75;98462.53;4989799;28;20046;-84
2024/01/04 06:14:19;;;;;;;2.50;2.30;;;;;;;-25.61;76.84;98468.44;4988500;28;20074;-83
2024/01/04 06:16:46;;;;;;;2.00;1.90;;;;;;;-25.64;76.84;98473.63;4990007;28;20047;-84
2024/01/04 06:19:13;;;;;;;2.20;2.00;;;;;;;-25.60;76.79;98479.47;4992946;28;20583;-84
2024/01/04 06:21:40;;;;;;;2.20;2.00;;;;;;;-25.59;76.62;98481.16;4991672;28;20426;-84
2024/01/04 06:24:08;;;;;;;2.30;2.10;;;;;;;-25.63;76.69;98480.34;4975156;28;20058;-83
2024/01/04 06:26:35;;;;;;;2.30;2.10;;;;;;;-25.60;76.83;98484.53;4992535;28;20077;-84
2024/01/04 06:29:02;;;;;;;2.75;2.55;;;;;;;-25.61;77.07;98478.63;4993748;28;20055;-84
2024/01/04 06:31:30;;;;;;;2.20;2.00;;;;;;;-25.54;76.78;98478.47;4964601;28;20054;-83
2024/01/04 06:33:58;;;;;;;2.30;2.10;;;;;;;-25.50;76.79;98475.81;4980165;28;20050;-83
2024/01/04 06:36:28;;;;;;;2.20;2.00;;;;;;;-25.49;76.81;98474.97;4979928;28;20058;-84
2024/01/04 06:38:56;;;;;;;2.30;2.10;;;;;;;-25.47;76.71;98478.31;4985291;28;20046;-82
2024/01/04 06:41:23;;;;;;;2.20;2.00;;;;;;;-25.46;76.82;98477.44;4986078;28;20049;-82
2024/01/04 06:43:51;;;;;;;2.33;2.13;;;;;;;-25.47;76.79;98480.00;4986624;28;20093;-82
2024/01/04 06:46:21;;;;;;;2.00;1.90;;;;;;;-25.45;76.77;98483.38;4992452;28;20042;-84
2024/01/04 06:48:48;;;;;;;2.33;2.13;;;;;;;-25.45;76.78;98479.09;4990798;28;20194;-84
2024/01/04 06:51:16;;;;;;;2.53;2.33;;;;;;;-25.38;76.79;98495.09;4995035;28;20053;-84
2024/01/04 06:53:43;;;;;;;2.30;2.10;;;;;;;-25.38;76.88;98489.16;4989063;28;20054;-84
2024/01/04 06:56:12;;;;;;;2.40;2.20;;;;;;;-25.36;76.86;98490.81;4645987;28;9999724;-85
2024/01/04 06:58:39;;;;;;;2.15;2.00;;;;;;;-25.33;76.90;98489.91;4983715;28;20062;-84
2024/01/04 07:01:07;;;;;;;2.00;1.90;;;;;;;-25.30;76.77;98494.91;4984262;28;20054;-83
2024/01/04 07:03:39;;;;;;;2.42;2.22;;;;;;;-25.27;76.68;98489.75;4985819;28;20128;-82
2024/01/04 07:06:09;;;;;;;2.40;2.20;;;;;;;-25.22;76.60;98498.09;4985981;28;20149;-83
2024/01/04 07:08:37;;;;;;;2.00;1.90;;;;;;;-25.18;76.64;98497.19;4964076;28;20047;-84
2024/01/04 07:11:05;;;;;;;2.30;2.10;;;;;;;-25.16;76.47;98500.53;4983985;28;20054;-83
2024/01/04 07:13:34;;;;;;;2.13;2.03;;;;;;;-25.20;76.32;98498.91;4990909;28;20149;-83
2024/01/04 07:16:05;;;;;;;2.28;2.08;;;;;;;-25.17;76.61;98494.56;4990566;28;20072;-82
2024/01/04 07:18:32;;;;;;;2.20;2.00;;;;;;;-25.19;76.42;98501.44;4985624;28;20050;-81
2024/01/04 07:21:00;;;;;;;2.00;1.90;;;;;;;-25.16;76.48;98510.72;4985962;28;20505;-82
2024/01/04 07:23:28;;;;;;;2.00;1.90;;;;;;;-25.22;76.45;98503.19;4987546;28;20061;-83
2024/01/04 07:25:56;;;;;;;2.00;1.90;;;;;;;-25.22;76.39;98510.84;4983796;28;20113;-81
2024/01/04 07:28:23;;;;;;;2.15;2.00;;;;;;;-25.03;76.35;98511.22;4984325;28;20145;-82
2024/01/04 07:30:51;;;;;;;2.30;2.10;;;;;;;-24.93;76.23;98507.59;4981855;28;20141;-82
2024/01/04 07:33:21;;;;;;;2.00;1.90;;;;;;;-24.85;76.13;98512.50;4984347;28;20053;-81
2024/01/04 07:35:48;;;;;;;2.20;2.00;;;;;;;-24.77;76.00;98513.13;4985282;28;20987;-81
2024/01/04 07:38:16;;;;;;;2.20;2.00;;;;;;;-24.59;76.09;98507.56;4983218;28;20053;-82
2024/01/04 07:40:55;;;;;;;2.00;1.90;;;;;;;-24.47;75.80;98493.66;4984389;28;20073;-82
2024/01/04 07:43:24;;;;;;;2.65;2.45;;;;;;;-24.39;75.38;98491.69;4988150;28;20046;-80
2024/01/04 07:46:03;;;;;;;2.20;2.08;;;;;;;-24.33;75.02;98488.16;4984692;28;20145;-81
2024/01/04 07:48:32;;;;;;;2.00;1.90;;;;;;;-24.17;75.39;98483.47;4991254;28;20148;-82
2024/01/04 07:51:05;;;;;;;2.20;2.08;;;;;;;-24.08;74.93;98480.66;4990216;28;20046;-81
2024/01/04 07:53:34;;;;;;;2.03;1.92;;;;;;;-24.05;74.55;98490.75;4985595;28;20050;-81
2024/01/04 07:56:03;;;;;;;2.00;1.90;;;;;;;-24.19;74.42;98498.81;4979401;28;20050;-83
2024/01/04 07:58:37;;;;;;;2.17;2.00;;;;;;;-24.19;74.45;98503.09;4984678;28;20421;-83
2024/01/04 08:01:08;;;;;;;2.00;1.90;;;;;;;-24.11;74.47;98514.75;4979643;28;20579;-84
2024/01/04 08:03:44;;;;;;;2.00;1.90;;;;;;;-24.13;74.42;98516.50;4979957;28;20046;-82
2024/01/04 08:06:16;;;;;;;1.92;1.83;;;;;;;-24.10;74.16;98515.56;4984716;28;20141;-83
2024/01/04 08:08:46;;;;;;;1.90;1.80;;;;;;;-24.09;74.31;98517.25;4983734;28;20073;-81
2024/01/04 08:11:15;;;;;;;2.00;1.90;;;;;;;-24.03;74.34;98514.53;4985775;28;20061;-81
2024/01/04 08:13:48;;;;;;;2.60;2.40;;;;;;;-23.97;74.31;98521.16;4980298;28;20085;-83
2024/01/04 08:16:19;;;;;;;2.15;2.00;;;;;;;-24.02;74.23;98510.25;4982606;28;20042;-81
2024/01/04 08:18:51;;;;;;;2.03;1.92;;;;;;;-23.77;74.19;98512.94;4980889;28;20047;-81
2024/01/04 08:21:23;;;;;;;2.10;2.00;;;;;;;-23.67;74.04;98514.31;4982264;28;20043;-82
2024/01/04 08:23:52;;;;;;;2.15;1.98;;;;;;;-23.55;73.92;98508.88;4981465;28;20092;-83
2024/01/04 08:26:22;;;;;;;1.90;1.80;;;;;;;-23.46;73.73;98512.88;4985144;28;20046;-82
2024/01/04 08:28:58;;;;;;;2.00;1.90;;;;;;;-23.38;73.69;98515.19;4975872;28;20291;-81
2024/01/04 08:31:26;;;;;;;2.20;2.10;;;;;;;-23.29;73.59;98510.66;4986099;28;20055;-81
2024/01/04 08:33:59;;;;;;;2.30;2.10;;;;;;;-23.07;73.58;98508.25;4982832;28;20054;-84
2024/01/04 08:36:29;;;;;;;2.10;2.00;;;;;;;-22.91;73.35;98512.84;4982454;28;20420;-82
2024/01/04 08:38:59;;;;;;;1.92;1.83;;;;;;;-22.77;72.99;98514.06;4981630;28;20521;-83
2024/01/04 08:41:27;;;;;;;2.00;1.90;;;;;;;-22.73;73.07;98507.16;4980780;28;20046;-83
2024/01/04 08:43:56;;;;;;;2.03;1.92;;;;;;;-22.86;72.67;98503.28;4983791;28;20133;-83
2024/01/04 08:46:23;;;;;;;2.00;1.90;;;;;;;-22.81;72.73;98506.53;4983736;28;20150;-82
2024/01/04 08:48:53;;;;;;;1.90;1.80;;;;;;;-22.93;72.80;98502.69;4982839;28;20065;-82
2024/01/04 08:51:23;;;;;;;1.85;1.75;;;;;;;-22.98;72.78;98505.41;4985596;28;20050;-82
2024/01/04 08:53:50;;;;;;;1.95;1.85;;;;;;;-22.87;72.56;98506.75;4986568;28;20054;-81
2024/01/04 08:56:19;;;;;;;2.00;1.90;;;;;;;-22.78;72.97;98514.13;4986272;28;20104;-82
2024/01/04 08:58:47;;;;;;;1.80;1.70;;;;;;;-22.58;72.86;98505.78;4981971;28;20057;-82
2024/01/04 09:01:14;;;;;;;1.88;1.77;;;;;;;-22.45;72.61;98514.72;4983858;28;20057;-82
2024/01/04 09:03:42;;;;;;;2.00;1.90;;;;;;;-22.49;72.14;98513.16;4983219;28;20046;-81
2024/01/04 09:06:12;;;;;;;1.90;1.80;;;;;;;-22.52;72.18;98502.19;4979282;28;20039;-82
2024/01/04 09:08:39;;;;;;;1.90;1.80;;;;;;;-22.49;72.24;98492.69;4979493;28;20126;-82
2024/01/04 09:11:06;;;;;;;1.90;1.80;;;;;;;-22.37;72.35;98501.69;4977774;28;20054;-81
2024/01/04 09:13:36;;;;;;;1.80;1.70;;;;;;;-22.43;72.06;98507.81;4976885;28;20105;-81
2024/01/04 09:16:04;;;;;;;2.00;1.90;;;;;;;-22.45;72.06;98496.81;4978714;28;20057;-83
2024/01/04 09:18:35;;;;;;;1.90;1.80;;;;;;;-22.41;72.14;98490.69;4960067;28;20050;-81
2024/01/04 09:21:03;;;;;;;1.90;1.80;;;;;;;-22.36;71.95;98499.03;4980299;28;20073;-81
2024/01/04 09:23:30;;;;;;;1.88;1.77;;;;;;;-22.39;71.85;98494.03;4980434;28;20138;-82
2024/01/04 09:26:09;;;;;;;1.85;1.75;;;;;;;-22.38;71.96;98494.88;4982020;28;20256;-81
2024/01/04 09:28:36;;;;;;;1.80;1.70;;;;;;;-22.35;71.98;98500.75;4981066;28;20114;-82
2024/01/04 09:31:03;;;;;;;1.75;1.65;;;;;;;-22.21;71.79;98501.97;4987655;28;20119;-82
2024/01/04 09:33:31;;;;;;;1.80;1.70;;;;;;;-22.08;71.43;98487.81;4980862;28;20043;-82
2024/01/04 09:35:58;;;;;;;1.90;1.80;;;;;;;-21.96;71.40;98492.50;4981280;28;20053;-81
2024/01/04 09:38:35;;;;;;;1.80;1.70;;;;;;;-21.75;71.33;98490.88;5006328;28;20046;-81
2024/01/04 09:41:16;;;;;;;1.90;1.80;;;;;;;-21.57;71.06;98479.09;4988062;28;20049;-81
2024/01/04 09:43:49;;;;;;;1.80;1.70;;;;;;;-21.44;70.73;98484.59;4982462;28;20575;-81
2024/01/04 09:46:20;;;;;;;1.70;1.60;;;;;;;-21.23;70.43;98473.50;4984740;28;20377;-82
2024/01/04 09:48:58;;;;;;;2.15;2.05;;;;;;;-21.46;70.13;98473.59;4985777;28;20050;-84
2024/01/04 09:51:29;;;;;;;1.83;1.73;;;;;;;-21.54;70.06;98475.59;4966550;28;20058;-82
2024/01/04 09:53:56;;;;;;;1.70;1.60;;;;;;;-21.58;70.21;98471.50;4988676;28;20054;-80
2024/01/04 09:56:25;;;;;;;1.85;1.75;;;;;;;-21.59;70.30;98470.66;4988018;28;20042;-82
2024/01/04 09:58:55;;;;;;;1.80;1.70;;;;;;;-21.44;70.29;98474.34;4988032;28;20096;-82
2024/01/04 10:01:34;;;;;;;1.80;1.70;;;;;;;-21.45;70.34;98465.84;4990792;28;20571;-83
2024/01/04 10:04:11;;;;;;;1.80;1.70;;;;;;;-21.27;70.06;98468.53;4988019;28;20114;-82
2024/01/04 10:06:44;;;;;;;1.90;1.80;;;;;;;-21.27;69.99;98476.25;4981550;28;20068;-83
2024/01/04 10:09:17;;;;;;;1.70;1.60;;;;;;;-21.32;69.85;98483.28;4987464;28;20054;-83
2024/01/04 10:11:53;;;;;;;2.00;1.90;;;;;;;-21.32;70.19;98478.97;4990385;28;20046;-82
2024/01/04 10:14:26;;;;;;;1.73;1.63;;;;;;;-21.29;69.98;98468.63;4985272;28;20053;-82
2024/01/04 10:16:56;;;;;;;2.00;1.90;;;;;;;-21.26;70.07;98471.06;4990229;28;20081;-82
2024/01/04 10:19:23;;;;;;;1.80;1.70;;;;;;;-21.29;70.04;98470.34;4990018;28;20054;-83
2024/01/04 10:21:54;;;;;;;1.90;1.80;;;;;;;-21.41;69.82;98463.19;4989489;28;20054;-82
2024/01/04 10:24:23;;;;;;;2.05;1.95;;;;;;;-21.52;69.97;98464.38;4986466;28;20429;-82
2024/01/04 10:26:57;;;;;;;1.70;1.60;;;;;;;-21.57;70.22;98468.84;4987306;28;20835;-82
2024/01/04 10:29:29;;;;;;;1.73;1.63;;;;;;;-21.58;70.43;98472.31;4981947;28;20053;-82
2024/01/04 10:31:58;;;;;;;1.60;1.50;;;;;;;-21.72;70.46;98465.19;4987168;28;20061;-84
2024/01/04 10:34:26;;;;;;;1.70;1.60;;;;;;;-21.75;70.65;98454.19;4994157;28;20529;-81
2024/01/04 10:36:56;;;;;;;1.80;1.70;;;;;;;-21.67;70.83;98467.53;4990302;28;20136;-81
2024/01/04 10:39:24;;;;;;;1.70;1.60;;;;;;;-21.59;71.17;98459.56;4991784;28;20070;-82
2024/01/04 10:42:02;;;;;;;1.83;1.73;;;;;;;-21.42;71.15;98459.75;4990549;28;20054;-81
2024/01/04 10:44:33;;;;;;;1.80;1.70;;;;;;;-21.28;70.93;98464.31;4985096;28;20062;-81
2024/01/04 10:47:02;;;;;;;1.80;1.70;;;;;;;-21.13;70.80;98458.59;4979276;28;20047;-81
2024/01/04 10:49:30;;;;;;;1.85;1.75;;;;;;;-21.04;70.81;98453.06;4983680;28;20050;-82
2024/01/04 10:52:00;;;;;;;1.80;1.70;;;;;;;-20.91;70.44;98450.03;4988296;28;20148;-82
2024/01/04 10:54:32;;;;;;;1.80;1.70;;;;;;;-20.77;70.48;98453.69;4983145;28;20509;-84
2024/01/04 10:57:00;;;;;;;1.90;1.80;;;;;;;-20.69;70.21;98447.41;4981330;28;20104;-82
2024/01/04 10:59:29;;;;;;;1.98;1.88;;;;;;;-20.76;70.21;98449.38;4988489;28;20481;-82
2024/01/04 11:02:00;;;;;;;1.60;1.50;;;;;;;-20.82;70.25;98449.66;4984340;28;20146;-82
2024/01/04 11:04:29;;;;;;;1.60;1.50;;;;;;;-20.94;70.40;98447.59;4982738;28;20584;-84
2024/01/04 11:07:00;;;;;;;1.98;1.88;;;;;;;-21.02;70.70;98440.22;4982712;28;20142;-82
2024/01/04 11:09:27;;;;;;;1.70;1.60;;;;;;;-20.96;71.00;98454.50;4984008;28;20453;-81
2024/01/04 11:11:59;;;;;;;1.70;1.60;;;;;;;-21.04;70.87;98449.69;4984990;28;20399;-81
2024/01/04 11:14:27;;;;;;;1.90;1.80;;;;;;;-21.16;70.92;98440.78;5009852;28;20465;-82
2024/01/04 11:17:35;;;;;;;1.70;1.60;;;;;;;-21.20;71.13;98444.34;4981167;28;20141;-82
2024/01/04 11:20:16;;;;;;;1.90;1.80;;;;;;;-21.15;71.22;98445.00;4980633;28;20039;-82
2024/01/04 11:23:05;;;;;;;1.70;1.60;;;;;;;-20.28;70.99;98449.91;4965438;28;20509;-81
2024/01/04 11:26:11;;;;;;;1.75;1.65;;;;;;;-19.91;70.06;98449.16;4958339;28;20266;-82
2024/01/04 11:28:38;;;;;;;1.95;1.85;;;;;;;-19.88;69.26;98440.47;4968708;28;20046;-83
2024/01/04 11:31:13;;;;;;;1.70;1.60;;;;;;;-19.60;68.97;98451.13;4982296;28;20058;-82
2024/01/04 11:33:49;;;;;;;1.83;1.73;;;;;;;-19.36;68.31;98444.03;4976015;28;20042;-82